KP68

Eureka Airport

Nevada, USA
METAR KP68 170253Z AUTO 32004KT 06/M07 A3027 RMK AO1 SLP245 T00561067 53008
Observed Flight Rules
Oct-17 @ 02:53 UTC (17 minutes ago)
Wind
320° at 4 knots
Temperatures Readings
Current 6°C / 43°F
Dewpoint -7°C / 19°F
Humidity 39%
Altimeter 30.27" Hg
Pressure 1024.5 hPa
Elevation 1809
METAR KP68 170253Z AUTO 32004KT 06/M07 A3027 RMK AO1 SLP245 T00561067 53008
Observed Flight Rules
Oct-17 @ 02:53 UTC
(17 minutes ago)
Wind
320° at 4 knots
Temperature Dewpoint
6°C / 43°F -7°C / 19°F
Humidity Altimeter Pressure
39% 30.27" Hg 1024.5 hPa